Conchas Dam, New Mexico
Current Conditions -  °F | °C
As of 10:53 AM on Sunday 21 Dec 2014 (Local Time) from KTCC Reporting Station
Clear Clear  
Wind Chill: 56°   Ceiling: Unl
Heat Index: 56°   Visibility: 10mi
Dew Point: 24°   Wind: 12mph
Humidity: 29%   Direction: 270°W
Pressure: 29.78"   Gusts: NA
Location:  35.37°N, 104.17°W
Report Text: KTCC 211753Z AUTO 27010KT 10SM CLR 13/M04 A2978 RMK AO2 SLP068 T01331044 10133 21039 58018
Loading
Personal Weather Stations






























Interactive Weather Map New forecast layout! Learn more

10-Day Weather Forecast

Advertisements
Track Severe Weather on mobile